Aviation Digital Data Service (ADDS)

Output produced by TAFs form (2046 UTC 19 July 2018)
found at http://www.aviationweather.gov/adds/tafs/
 
KAHN 191951Z 06007KT 10SM FEW028 SCT037 SCT055 31/24 A2996 RMK AO2 SLP136 T03110239
KAHN 191734Z 1918/2018 08008KT P6SM VCSH SCT025 BKN040 
     TEMPO 1920/1923 VRB10G20KT 4SM TSRA BKN035CB 
     FM200400 08004KT P6SM SCT060 BKN150 
     FM200800 07004KT P6SM BKN015 
     FM201000 07005KT 6SM BR BKN008 
     FM201500 07006KT P6SM BKN025